Time;durP1;ratioP1;P1;durP2;ratioP2;P2;SDS_P1;SDS_P2;PMS_P1;PMS_P2;Temp;Humidity;BMP_temperature;BMP_pressure;BME280_temperature;BME280_humidity;BME280_pressure;Samples;Min_cycle;Max_cycle;Signal;HPM_P1;HPM_P2
2023/03/28 00:01:27;;;;;;;8.27;1.48;;;2.00;99.90;;;;;;5058074;28;20044;-90
2023/03/28 00:03:53;;;;;;;7.72;1.30;;;2.00;99.90;;;;;;5061217;28;20043;-89
2023/03/28 00:06:20;;;;;;;7.32;1.23;;;2.00;99.90;;;;;;5075161;28;20035;-90
2023/03/28 00:08:46;;;;;;;8.80;1.80;;;2.00;99.90;;;;;;5092680;28;20040;-90
2023/03/28 00:11:18;;;;;;;7.30;1.77;;;2.10;99.90;;;;;;5092243;28;20044;-90
2023/03/28 00:13:45;;;;;;;10.80;1.63;;;2.10;99.90;;;;;;5093082;28;20658;-90
2023/03/28 00:16:11;;;;;;;7.97;1.75;;;2.10;99.90;;;;;;5074814;28;20043;-90
2023/03/28 00:18:37;;;;;;;5.25;0.95;;;2.10;99.90;;;;;;5075863;28;20131;-89
2023/03/28 00:21:35;;;;;;;6.97;1.55;;;2.10;99.90;;;;;;5092874;28;20120;-91
2023/03/28 00:24:03;;;;;;;11.70;2.20;;;2.20;99.90;;;;;;5014745;28;20053;-90
2023/03/28 00:26:32;;;;;;;10.05;2.03;;;2.20;99.90;;;;;;4998706;28;20443;-90
2023/03/28 00:29:00;;;;;;;12.75;1.88;;;2.20;99.90;;;;;;4997981;28;20057;-90
2023/03/28 00:31:26;;;;;;;5.50;1.08;;;2.20;99.90;;;;;;4996822;28;20132;-89
2023/03/28 00:33:52;;;;;;;10.50;1.58;;;2.20;99.90;;;;;;4996000;28;20399;-89
2023/03/28 00:36:25;;;;;;;5.05;1.20;;;2.20;99.90;;;;;;4997748;28;20102;-89
2023/03/28 00:38:54;;;;;;;11.38;1.98;;;2.20;99.90;;;;;;4995787;28;20034;-89
2023/03/28 00:41:21;;;;;;;11.15;2.45;;;2.20;99.90;;;;;;5013262;28;20747;-90
2023/03/28 00:43:50;;;;;;;11.93;1.80;;;2.20;99.90;;;;;;4996644;28;20040;-89
2023/03/28 00:46:45;;;;;;;6.82;1.40;;;2.20;99.90;;;;;;5014289;28;20576;-92
2023/03/28 00:49:16;;;;;;;8.23;2.03;;;2.20;99.90;;;;;;4994876;28;20860;-91
2023/03/28 00:51:47;;;;;;;10.13;1.83;;;2.20;99.90;;;;;;5013812;28;20049;-92
2023/03/28 00:54:17;;;;;;;8.88;2.25;;;2.20;99.90;;;;;;5013945;28;20088;-92
2023/03/28 00:56:47;;;;;;;10.85;2.25;;;2.20;99.90;;;;;;5012962;28;20124;-91
2023/03/28 00:59:18;;;;;;;10.60;2.00;;;2.20;99.90;;;;;;4996644;28;20077;-91
2023/03/28 01:01:45;;;;;;;8.68;2.10;;;2.10;99.90;;;;;;5090971;28;20131;-91
2023/03/28 01:04:18;;;;;;;10.77;1.58;;;2.10;99.90;;;;;;5073933;28;20035;-92
2023/03/28 01:06:46;;;;;;;9.25;1.73;;;2.10;99.90;;;;;;5074837;28;20124;-93
2023/03/28 01:09:13;;;;;;;9.93;2.15;;;2.10;99.90;;;;;;5073322;28;20047;-92
2023/03/28 01:11:41;;;;;;;6.97;1.55;;;2.10;99.90;;;;;;5074276;28;20051;-93
2023/03/28 01:14:12;;;;;;;5.47;1.02;;;2.10;99.90;;;;;;5091124;28;20127;-92
2023/03/28 01:16:40;;;;;;;8.48;1.10;;;2.10;99.90;;;;;;5090067;28;20028;-93
2023/03/28 01:19:15;;;;;;;9.88;1.55;;;2.10;99.90;;;;;;5090046;28;20044;-92
2023/03/28 01:22:31;;;;;;;5.22;1.25;;;2.10;99.90;;;;;;5073434;28;20040;-92
2023/03/28 01:25:07;;;;;;;8.60;1.52;;;2.10;99.90;;;;;;5037116;28;20040;-92
2023/03/28 01:27:53;;;;;;;13.15;1.60;;;2.10;99.90;;;;;;5058575;28;20042;-92
2023/03/28 01:31:16;;;;;;;8.70;1.63;;;2.20;99.90;;;;;;5090833;28;20506;-91
2023/03/28 01:33:59;;;;;;;7.05;1.00;;;2.20;99.90;;;;;;4993376;28;20060;-91
2023/03/28 01:36:55;;;;;;;11.60;2.15;;;2.20;99.90;;;;;;4976187;28;20100;-91
2023/03/28 01:39:33;;;;;;;10.45;1.48;;;2.10;99.90;;;;;;4976513;28;20156;-91
2023/03/28 01:42:06;;;;;;;10.10;1.52;;;2.10;99.90;;;;;;4976623;28;20121;-92
2023/03/28 01:44:43;;;;;;;6.22;1.58;;;2.10;99.90;;;;;;4977594;28;20052;-91
2023/03/28 01:47:39;;;;;;;10.65;2.03;;;2.10;99.90;;;;;;4977487;28;20030;-92
2023/03/28 01:50:09;;;;;;;8.23;1.40;;;2.20;99.90;;;;;;4974315;28;20108;-92
2023/03/28 01:52:56;;;;;;;12.23;2.28;;;2.10;99.90;;;;;;4978771;28;20045;-91
2023/03/28 01:55:33;;;;;;;6.38;1.48;;;2.10;99.90;;;;;;4993123;28;20038;-91
2023/03/28 01:58:16;;;;;;;10.68;1.67;;;2.10;99.90;;;;;;4992322;28;20139;-92
2023/03/28 02:00:46;;;;;;;10.45;2.55;;;2.20;99.90;;;;;;5008672;28;20049;-92
2023/03/28 02:03:23;;;;;;;10.85;2.17;;;2.20;99.90;;;;;;4985305;28;20578;-92
2023/03/28 02:05:54;;;;;;;9.13;1.33;;;2.20;99.90;;;;;;5073470;28;20043;-91
2023/03/28 02:08:21;;;;;;;12.68;2.08;;;2.20;99.90;;;;;;5090879;28;20400;-92
2023/03/28 02:10:49;;;;;;;7.20;1.73;;;2.20;99.90;;;;;;5074120;28;20497;-92
2023/03/28 02:13:19;;;;;;;6.07;1.13;;;2.20;99.90;;;;;;5072888;28;20067;-93
2023/03/28 02:15:50;;;;;;;10.15;1.40;;;2.10;99.90;;;;;;5090651;28;20043;-92
2023/03/28 02:18:22;;;;;;;10.88;1.60;;;2.10;99.90;;;;;;5090255;28;20104;-92
2023/03/28 02:20:54;;;;;;;10.48;1.73;;;2.10;99.90;;;;;;5089874;28;20527;-93
2023/03/28 02:23:27;;;;;;;10.73;1.77;;;2.00;99.90;;;;;;5072349;28;20040;-91
2023/03/28 02:25:52;;;;;;;;;;;1.90;99.90;;;;;;5084825;28;20529;-92
2023/03/28 02:28:19;;;;;;;13.30;1.92;;;1.80;99.90;;;;;;5090474;28;20003;-92
2023/03/28 02:30:45;;;;;;;7.53;2.55;;;1.80;99.90;;;;;;5089504;28;20405;-92
2023/03/28 02:33:29;;;;;;;11.77;1.90;;;1.70;99.90;;;;;;5073881;28;20040;-92
2023/03/28 02:36:08;;;;;;;8.45;1.73;;;1.70;99.90;;;;;;5088859;28;20036;-91
2023/03/28 02:38:34;;;;;;;10.02;3.45;;;1.70;99.90;;;;;;5073286;28;20044;-92
2023/03/28 02:41:14;;;;;;;7.40;2.13;;;1.60;99.90;;;;;;5089616;28;20497;-91
2023/03/28 02:43:57;;;;;;;10.23;1.42;;;1.60;99.90;;;;;;5089355;28;20036;-91
2023/03/28 02:46:35;;;;;;;12.02;1.95;;;1.60;99.90;;;;;;5073141;28;20055;-91
2023/03/28 02:49:26;;;;;;;10.75;2.28;;;1.60;99.90;;;;;;5089282;28;20039;-91
2023/03/28 02:52:20;;;;;;;7.72;1.45;;;1.50;99.90;;;;;;5073320;28;20477;-91
2023/03/28 02:54:55;;;;;;;9.18;1.92;;;1.50;99.90;;;;;;5073031;28;20044;-92
2023/03/28 02:57:35;;;;;;;7.75;1.55;;;1.40;99.90;;;;;;5076972;28;20063;-92
2023/03/28 03:00:10;;;;;;;8.25;1.38;;;1.30;99.90;;;;;;5092773;28;20077;-90
2023/03/28 03:02:36;;;;;;;10.35;2.20;;;1.20;99.90;;;;;;5094005;28;20051;-91
2023/03/28 03:05:02;;;;;;;7.93;1.42;;;1.10;99.90;;;;;;5076256;28;20032;-92
2023/03/28 03:07:30;;;;;;;8.82;1.20;;;1.10;99.90;;;;;;5074913;28;20090;-91
2023/03/28 03:09:56;;;;;;;7.25;1.67;;;1.00;99.90;;;;;;5094131;28;20047;-91
2023/03/28 03:12:22;;;;;;;7.55;1.48;;;0.90;99.90;;;;;;5092904;28;20036;-91
2023/03/28 03:14:49;;;;;;;12.85;1.55;;;0.90;99.90;;;;;;5076377;28;20067;-91
2023/03/28 03:17:19;;;;;;;6.85;1.23;;;0.90;99.90;;;;;;5076766;28;20122;-91
2023/03/28 03:19:45;;;;;;;13.10;2.58;;;0.90;99.90;;;;;;5091856;28;20036;-91
2023/03/28 03:22:11;;;;;;;14.48;1.92;;;0.90;99.90;;;;;;5093570;28;20477;-91
2023/03/28 03:24:37;;;;;;;10.35;1.77;;;0.80;99.90;;;;;;5075683;28;20090;-91
2023/03/28 03:27:03;;;;;;;8.15;1.75;;;0.80;99.90;;;;;;5093506;28;20134;-92
2023/03/28 03:29:28;;;;;;;8.70;2.10;;;0.70;99.90;;;;;;5076013;28;20086;-91
2023/03/28 03:31:54;;;;;;;8.15;1.65;;;0.70;99.90;;;;;;5093016;28;20069;-92
2023/03/28 03:34:20;;;;;;;6.15;1.42;;;0.70;99.90;;;;;;5076287;28;20690;-91
2023/03/28 03:36:46;;;;;;;11.32;1.90;;;0.70;99.90;;;;;;5092508;28;20047;-92
2023/03/28 03:39:11;;;;;;;10.57;1.63;;;0.60;99.90;;;;;;5092477;28;20036;-92
2023/03/28 03:41:37;;;;;;;15.48;2.13;;;0.60;99.90;;;;;;5076188;28;20126;-92
2023/03/28 03:44:03;;;;;;;5.25;1.40;;;0.60;99.90;;;;;;5075821;28;20413;-92
2023/03/28 03:46:29;;;;;;;12.95;1.98;;;0.60;99.90;;;;;;5076969;28;20036;-91
2023/03/28 03:48:54;;;;;;;6.95;1.20;;;0.60;99.90;;;;;;5075517;28;20036;-91
2023/03/28 03:51:20;;;;;;;3.83;1.00;;;0.60;99.90;;;;;;5092070;28;20035;-91
2023/03/28 03:53:49;;;;;;;7.82;1.25;;;0.60;99.90;;;;;;5109643;28;20127;-91
2023/03/28 03:56:15;;;;;;;12.18;2.45;;;0.60;99.90;;;;;;5074687;28;20036;-90
2023/03/28 03:58:40;;;;;;;16.15;1.77;;;0.60;99.90;;;;;;5075227;28;20044;-90
2023/03/28 04:01:08;;;;;;;5.50;1.42;;;0.60;99.90;;;;;;5092127;28;20032;-91
2023/03/28 04:03:34;;;;;;;10.80;1.85;;;0.60;99.90;;;;;;5091330;28;20051;-91
2023/03/28 04:06:00;;;;;;;13.45;2.03;;;0.60;99.90;;;;;;5090865;28;20036;-90
2023/03/28 04:08:26;;;;;;;7.32;1.40;;;0.60;99.90;;;;;;5091459;28;20105;-91
2023/03/28 04:10:51;;;;;;;10.23;1.85;;;0.60;99.90;;;;;;5091897;28;20099;-91
2023/03/28 04:13:17;;;;;;;6.18;1.38;;;0.60;99.90;;;;;;5091900;28;20032;-91
2023/03/28 04:15:45;;;;;;;8.43;1.80;;;0.60;99.90;;;;;;5090785;28;20093;-91
2023/03/28 04:18:10;;;;;;;4.28;1.10;;;0.50;99.90;;;;;;5091524;28;20032;-91
2023/03/28 04:20:39;;;;;;;15.07;1.98;;;0.50;99.90;;;;;;5092018;28;20097;-91
2023/03/28 04:23:04;;;;;;;5.90;1.65;;;0.50;99.90;;;;;;5090921;28;20036;-91
2023/03/28 04:25:30;;;;;;;4.07;1.50;;;0.40;99.90;;;;;;5091916;28;20374;-91
2023/03/28 04:27:56;;;;;;;10.85;2.10;;;0.40;99.90;;;;;;5090403;28;20032;-92
2023/03/28 04:30:23;;;;;;;7.57;1.83;;;0.50;99.90;;;;;;5091423;28;20071;-91
2023/03/28 04:32:49;;;;;;;7.65;1.83;;;0.50;99.90;;;;;;5091223;28;20108;-91
2023/03/28 04:35:15;;;;;;;8.77;1.55;;;0.40;99.90;;;;;;5090395;28;20517;-91
2023/03/28 04:37:42;;;;;;;4.85;1.33;;;0.40;99.90;;;;;;5074169;28;20044;-91
2023/03/28 04:40:11;;;;;;;6.82;1.58;;;0.40;99.90;;;;;;5073406;28;20477;-91
2023/03/28 04:42:37;;;;;;;9.70;1.90;;;0.30;99.90;;;;;;5091033;28;20081;-92
2023/03/28 04:45:05;;;;;;;11.60;1.88;;;0.30;99.90;;;;;;5090899;28;20032;-91
2023/03/28 04:47:31;;;;;;;7.32;1.52;;;0.40;99.90;;;;;;5073883;28;20485;-91
2023/03/28 04:49:57;;;;;;;14.60;1.60;;;0.40;99.90;;;;;;5073975;28;20032;-90
2023/03/28 04:52:23;;;;;;;7.57;1.35;;;0.40;99.90;;;;;;5072913;28;20722;-90
2023/03/28 04:54:50;;;;;;;10.40;1.50;;;0.40;99.90;;;;;;5091525;28;20401;-91
2023/03/28 04:57:15;;;;;;;10.35;1.58;;;0.40;99.90;;;;;;5090653;28;20044;-91
2023/03/28 04:59:41;;;;;;;5.90;1.30;;;0.30;99.90;;;;;;5090098;28;20059;-91
2023/03/28 05:02:07;;;;;;;8.00;3.03;;;0.30;99.90;;;;;;5091444;28;20044;-92
2023/03/28 05:04:33;;;;;;;10.68;1.40;;;0.30;99.90;;;;;;5073750;28;20042;-92
2023/03/28 05:06:58;;;;;;;7.32;1.45;;;0.30;99.90;;;;;;5091091;28;20044;-92
2023/03/28 05:09:25;;;;;;;6.40;1.35;;;0.40;99.90;;;;;;5089341;28;20044;-91
2023/03/28 05:11:50;;;;;;;5.53;1.48;;;0.40;99.90;;;;;;5072919;28;20031;-91
2023/03/28 05:14:16;;;;;;;3.80;1.33;;;0.50;99.90;;;;;;5073463;28;20050;-91
2023/03/28 05:16:42;;;;;;;8.23;1.67;;;0.50;99.90;;;;;;5072731;28;20126;-90
2023/03/28 05:19:09;;;;;;;6.43;1.90;;;0.60;99.90;;;;;;5072808;28;20115;-92
2023/03/28 05:21:35;;;;;;;6.85;1.55;;;0.60;99.90;;;;;;5073768;28;20040;-91
2023/03/28 05:24:01;;;;;;;7.55;1.45;;;0.60;99.90;;;;;;5072491;28;20119;-90
2023/03/28 05:26:26;;;;;;;3.00;0.98;;;0.60;99.90;;;;;;5090300;28;20615;-91
2023/03/28 05:28:52;;;;;;;7.32;1.67;;;0.70;99.90;;;;;;5089406;28;20055;-91
2023/03/28 05:31:18;;;;;;;6.80;1.75;;;0.70;99.90;;;;;;5073115;28;20047;-91
2023/03/28 05:33:44;;;;;;;5.90;1.50;;;0.80;99.90;;;;;;5090402;28;20044;-92
2023/03/28 05:36:11;;;;;;;8.32;1.48;;;0.80;99.90;;;;;;5089646;28;20115;-90
2023/03/28 05:38:37;;;;;;;8.45;1.55;;;0.80;99.90;;;;;;5073451;28;20040;-90
2023/03/28 05:41:03;;;;;;;5.55;1.35;;;0.90;99.90;;;;;;5090197;28;20093;-90
2023/03/28 05:43:29;;;;;;;7.80;1.52;;;0.90;99.90;;;;;;5073895;28;20035;-92
2023/03/28 05:45:55;;;;;;;6.80;1.80;;;1.00;99.90;;;;;;5091541;28;20050;-92
2023/03/28 05:48:20;;;;;;;4.32;1.42;;;1.00;99.90;;;;;;5089862;28;20405;-92
2023/03/28 05:50:49;;;;;;;9.55;1.70;;;1.10;99.90;;;;;;5091252;28;20044;-91
2023/03/28 05:53:15;;;;;;;8.18;1.60;;;1.10;99.90;;;;;;5073002;28;20070;-91
2023/03/28 05:55:41;;;;;;;8.20;1.42;;;1.20;99.90;;;;;;5072955;28;20191;-92
2023/03/28 05:58:07;;;;;;;7.82;1.58;;;1.20;99.90;;;;;;5089116;28;20093;-91
2023/03/28 06:00:33;;;;;;;8.07;2.05;;;1.20;99.90;;;;;;5071280;28;20066;-90
2023/03/28 06:02:59;;;;;;;7.32;2.38;;;1.20;99.90;;;;;;5072364;28;20035;-92
2023/03/28 06:05:26;;;;;;;6.35;1.38;;;1.30;99.90;;;;;;5088445;28;20059;-91
2023/03/28 06:07:52;;;;;;;3.70;1.00;;;1.30;99.90;;;;;;5089844;28;20519;-91
2023/03/28 06:10:18;;;;;;;8.30;1.70;;;1.30;99.90;;;;;;5088767;28;20059;-91
2023/03/28 06:12:44;;;;;;;6.68;1.50;;;1.30;99.90;;;;;;5070044;28;20044;-91
2023/03/28 06:15:10;;;;;;;5.80;1.85;;;1.40;99.90;;;;;;5088558;28;20092;-91
2023/03/28 06:17:36;;;;;;;8.77;1.52;;;1.40;99.90;;;;;;5088023;28;20521;-91
2023/03/28 06:20:05;;;;;;;9.52;2.65;;;1.50;99.90;;;;;;5090321;28;20028;-92
2023/03/28 06:22:31;;;;;;;8.15;1.48;;;1.50;99.90;;;;;;5087305;28;20063;-92
2023/03/28 06:24:56;;;;;;;5.55;1.23;;;1.60;99.90;;;;;;5089524;28;20059;-91
2023/03/28 06:27:22;;;;;;;5.22;1.25;;;1.70;99.90;;;;;;5072852;28;20044;-92
2023/03/28 06:29:48;;;;;;;5.85;1.38;;;1.80;99.90;;;;;;5088512;28;20047;-91
2023/03/28 06:32:14;;;;;;;6.05;1.92;;;1.80;99.90;;;;;;5073077;28;20134;-91
2023/03/28 06:34:40;;;;;;;13.50;2.83;;;1.80;99.90;;;;;;5072478;28;20036;-91
2023/03/28 06:37:05;;;;;;;7.65;1.30;;;1.90;99.90;;;;;;5089591;28;20054;-92
2023/03/28 06:39:31;;;;;;;6.88;1.63;;;2.00;99.90;;;;;;5088143;28;20036;-90
2023/03/28 06:41:57;;;;;;;9.23;1.67;;;2.10;99.90;;;;;;5072082;28;20120;-91
2023/03/28 06:44:22;;;;;;;8.18;1.48;;;2.10;99.90;;;;;;5072529;28;20040;-91
2023/03/28 06:46:48;;;;;;;8.23;2.10;;;2.20;99.90;;;;;;5072418;28;20048;-91
2023/03/28 06:49:14;;;;;;;6.57;1.52;;;2.20;99.90;;;;;;5067313;28;20051;-92
2023/03/28 06:51:40;;;;;;;8.52;1.75;;;2.30;99.90;;;;;;5099485;28;20051;-91
2023/03/28 06:54:05;;;;;;;9.07;2.40;;;2.40;99.90;;;;;;5080624;28;20048;-91
2023/03/28 06:56:32;;;;;;;5.53;1.58;;;2.40;99.90;;;;;;5094076;28;20040;-91
2023/03/28 06:58:58;;;;;;;4.50;1.42;;;2.50;99.90;;;;;;5113509;28;20037;-91
2023/03/28 07:01:23;;;;;;;8.18;1.60;;;2.50;99.90;;;;;;5065014;28;20039;-92
2023/03/28 07:03:49;;;;;;;11.35;1.98;;;2.60;99.90;;;;;;5088075;28;20044;-91
2023/03/28 07:06:15;;;;;;;6.38;1.40;;;2.60;99.90;;;;;;5091611;28;20593;-92
2023/03/28 07:08:40;;;;;;;5.15;1.30;;;2.70;99.90;;;;;;5089055;28;20405;-92
2023/03/28 07:11:06;;;;;;;10.02;2.05;;;2.70;99.90;;;;;;5088646;28;20055;-91
2023/03/28 07:13:32;;;;;;;6.13;1.77;;;2.80;99.90;;;;;;5072920;28;20035;-91
2023/03/28 07:16:03;;;;;;;11.05;2.08;;;2.90;99.90;;;;;;5089369;28;20035;-90
2023/03/28 07:18:29;;;;;;;8.80;1.63;;;3.00;99.90;;;;;;5082345;28;20052;-91
2023/03/28 07:20:54;;;;;;;5.75;1.50;;;3.10;99.90;;;;;;5064388;28;20039;-93
2023/03/28 07:23:20;;;;;;;9.32;2.47;;;3.20;99.90;;;;;;5105026;28;20536;-91
2023/03/28 07:25:46;;;;;;;8.45;1.60;;;3.40;99.90;;;;;;5089394;28;20405;-92
2023/03/28 07:28:11;;;;;;;7.13;1.90;;;3.50;99.90;;;;;;5089021;28;20032;-92
2023/03/28 07:30:37;;;;;;;9.68;1.77;;;3.60;99.90;;;;;;5089368;28;20071;-92
2023/03/28 07:33:03;;;;;;;8.95;1.65;;;3.60;99.90;;;;;;5090084;28;20123;-92
2023/03/28 07:35:30;;;;;;;6.88;1.60;;;3.70;99.90;;;;;;5089076;28;20044;-92
2023/03/28 07:37:57;;;;;;;11.38;2.00;;;3.70;99.90;;;;;;5072194;28;20124;-92
2023/03/28 07:40:22;;;;;;;13.18;2.40;;;3.80;99.90;;;;;;5073090;28;20178;-92
2023/03/28 07:42:48;;;;;;;10.07;2.05;;;3.90;99.90;;;;;;5098900;28;20612;-92
2023/03/28 07:45:14;;;;;;;15.70;1.92;;;4.00;99.90;;;;;;5074195;28;20044;-92
2023/03/28 07:47:40;;;;;;;6.65;2.13;;;4.10;99.90;;;;;;5074279;28;20117;-92
2023/03/28 07:50:07;;;;;;;11.82;2.00;;;4.10;99.90;;;;;;5110224;28;20050;-92
2023/03/28 07:52:33;;;;;;;6.38;1.65;;;4.20;99.90;;;;;;5108162;28;20090;-92
2023/03/28 07:54:58;;;;;;;7.05;1.92;;;4.40;99.90;;;;;;5076766;28;20566;-93
2023/03/28 07:57:24;;;;;;;10.02;1.85;;;4.40;99.90;;;;;;5093498;28;20040;-92
2023/03/28 07:59:50;;;;;;;9.05;2.50;;;4.50;99.90;;;;;;5075595;28;20093;-94
2023/03/28 08:02:15;;;;;;;9.95;1.80;;;4.60;99.90;;;;;;5076038;28;20044;-94
2023/03/28 08:04:41;;;;;;;9.40;1.80;;;4.60;99.90;;;;;;5091228;28;20471;-93
2023/03/28 08:07:09;;;;;;;14.55;2.72;;;4.70;99.90;;;;;;5075217;28;20078;-92
2023/03/28 08:09:35;;;;;;;10.52;1.98;;;4.80;99.90;;;;;;5074991;28;20040;-92
2023/03/28 08:12:01;;;;;;;8.88;1.70;;;4.80;99.90;;;;;;5090944;28;20105;-92
2023/03/28 08:14:27;;;;;;;6.03;1.70;;;4.90;99.90;;;;;;5091963;28;20127;-92
2023/03/28 08:16:55;;;;;;;6.38;1.67;;;4.90;99.90;;;;;;5075333;28;20097;-91
2023/03/28 08:19:21;;;;;;;6.80;2.10;;;5.00;99.90;;;;;;5075694;28;20513;-93
2023/03/28 08:21:46;;;;;;;10.32;2.00;;;5.00;99.90;;;;;;5092470;28;20040;-93
2023/03/28 08:24:12;;;;;;;8.50;2.53;;;5.10;99.90;;;;;;5074556;28;20526;-91
2023/03/28 08:26:37;;;;;;;6.15;1.67;;;5.20;99.90;;;;;;5075896;28;20036;-92
2023/03/28 08:29:04;;;;;;;7.40;1.70;;;5.30;99.90;;;;;;5074938;28;20492;-93
2023/03/28 08:31:30;;;;;;;12.15;2.15;;;5.30;99.90;;;;;;5074619;28;20043;-93
2023/03/28 08:33:56;;;;;;;7.88;1.55;;;5.30;99.90;;;;;;5108092;28;20043;-94
2023/03/28 08:36:24;;;;;;;10.18;2.20;;;5.30;99.90;;;;;;5092459;28;20082;-93
2023/03/28 08:38:50;;;;;;;9.15;2.00;;;5.30;99.90;;;;;;5070531;28;20036;-94
2023/03/28 08:41:40;;;;;;;8.80;1.83;;;5.30;99.90;;;;;;5065677;28;20058;-93
2023/03/28 08:44:18;;;;;;;6.85;1.38;;;5.40;99.90;;;;;;5065852;28;20036;-92
2023/03/28 08:46:45;;;;;;;10.13;1.83;;;5.40;99.90;;;;;;5065118;28;20085;-92
2023/03/28 08:49:15;;;;;;;8.60;1.65;;;5.50;99.90;;;;;;5063360;28;20040;-93
2023/03/28 08:51:59;;;;;;;10.18;2.05;;;5.50;99.90;;;;;;5079283;28;20040;-93
2023/03/28 08:54:43;;;;;;;11.00;2.25;;;5.60;99.90;;;;;;5079658;28;20272;-93
2023/03/28 08:57:16;;;;;;;5.38;1.40;;;5.70;99.90;;;;;;5081064;28;20036;-94
2023/03/28 09:00:11;;;;;;;8.25;1.70;;;5.80;99.90;;;;;;5062464;28;20120;-93
2023/03/28 09:02:37;;;;;;;5.93;1.77;;;5.80;99.90;;;;;;5081985;28;20040;-94
2023/03/28 09:05:03;;;;;;;4.65;1.42;;;5.80;99.90;;;;;;5083126;28;20039;-93
2023/03/28 09:07:35;;;;;;;7.45;1.90;;;5.80;99.90;;;;;;5079637;28;20033;-93
2023/03/28 09:10:21;;;;;;;5.55;1.45;;;5.80;99.90;;;;;;5080974;28;20040;-94
2023/03/28 09:12:56;;;;;;;9.27;2.00;;;5.90;99.90;;;;;;5087882;28;20041;-94
2023/03/28 09:15:45;;;;;;;8.73;2.03;;;6.00;99.90;;;;;;5081804;28;20047;-94
2023/03/28 09:18:21;;;;;;;10.68;2.08;;;6.20;99.90;;;;;;5080731;28;20089;-93
2023/03/28 09:20:58;;;;;;;7.18;1.83;;;6.30;99.90;;;;;;5080589;28;20028;-94
2023/03/28 09:23:41;;;;;;;9.82;1.45;;;6.50;99.90;;;;;;5069678;28;20033;-93
2023/03/28 09:26:16;;;;;;;4.07;0.95;;;6.70;99.90;;;;;;5070911;28;20111;-93
2023/03/28 09:29:05;;;;;;;3.90;1.38;;;6.70;93.10;;;;;;5073975;28;20455;-93
2023/03/28 09:31:44;;;;;;;5.90;1.30;;;6.80;93.10;;;;;;5073346;28;20121;-94
2023/03/28 09:34:22;;;;;;;6.18;1.13;;;7.10;94.20;;;;;;5059751;28;20505;-95
2023/03/28 09:36:52;;;;;;;3.33;1.02;;;7.30;92.10;;;;;;5058215;28;20076;-94
2023/03/28 09:39:44;;;;;;;5.85;1.45;;;7.40;89.50;;;;;;5064012;28;20043;-94
2023/03/28 09:42:46;;;;;;;3.80;1.42;;;7.50;89.60;;;;;;5067367;28;20035;-94
2023/03/28 09:45:43;;;;;;;5.95;1.52;;;7.50;87.00;;;;;;5065081;28;20028;-95
2023/03/28 09:48:22;;;;;;;3.78;0.73;;;7.50;87.70;;;;;;5092901;28;20050;-91
2023/03/28 09:50:49;;;;;;;5.47;1.33;;;7.60;85.50;;;;;;5078261;28;20045;-91
2023/03/28 09:53:32;;;;;;;3.25;1.30;;;7.70;84.70;;;;;;5053664;28;20037;-91
2023/03/28 09:56:26;;;;;;;3.40;0.88;;;7.70;81.60;;;;;;5074076;28;20080;-91
2023/03/28 09:59:01;;;;;;;5.65;1.02;;;7.90;80.90;;;;;;5063136;28;20048;-91
2023/03/28 10:01:42;;;;;;;4.88;0.95;;;7.90;80.50;;;;;;5098623;28;20395;-92
2023/03/28 10:04:10;;;;;;;4.90;0.80;;;7.90;79.90;;;;;;5083413;28;20110;-92
2023/03/28 10:06:38;;;;;;;7.70;1.20;;;7.80;78.80;;;;;;5068066;28;20035;-92
2023/03/28 10:09:14;;;;;;;3.33;0.88;;;7.70;78.00;;;;;;5061789;28;20500;-92
2023/03/28 10:11:53;;;;;;;9.77;1.02;;;7.80;80.40;;;;;;5055398;28;20036;-92
2023/03/28 10:14:36;;;;;;;3.92;0.77;;;7.80;76.70;;;;;;5072898;28;20097;-91
2023/03/28 10:17:16;;;;;;;3.47;0.63;;;7.80;75.70;;;;;;5090226;28;20146;-92
2023/03/28 10:19:45;;;;;;;2.33;0.93;;;7.70;72.50;;;;;;5072932;28;20501;-92
2023/03/28 10:22:32;;;;;;;7.28;1.85;;;7.70;76.20;;;;;;5090683;28;20040;-92
2023/03/28 10:24:59;;;;;;;4.95;0.93;;;7.70;77.10;;;;;;5072740;28;20561;-92
2023/03/28 10:27:34;;;;;;;4.82;1.00;;;7.80;75.40;;;;;;5090660;28;20040;-91
2023/03/28 10:30:12;;;;;;;5.32;1.00;;;7.70;74.70;;;;;;5073468;28;20032;-92
2023/03/28 10:32:38;;;;;;;5.03;1.15;;;7.70;75.60;;;;;;5090574;28;20040;-91
2023/03/28 10:35:29;;;;;;;4.45;1.13;;;7.60;76.00;;;;;;5107959;28;20515;-92
2023/03/28 10:37:55;;;;;;;6.60;1.65;;;7.60;76.50;;;;;;5072825;28;20057;-92
2023/03/28 10:40:26;;;;;;;5.35;1.45;;;7.60;76.50;;;;;;5074214;28;20374;-91
2023/03/28 10:42:52;;;;;;;7.20;1.63;;;7.80;77.00;;;;;;5072785;28;20709;-92
2023/03/28 10:45:29;;;;;;;5.82;1.40;;;7.80;76.60;;;;;;5090702;28;20040;-92
2023/03/28 10:47:59;;;;;;;5.22;1.10;;;7.80;76.00;;;;;;5073409;28;20036;-93
2023/03/28 10:50:39;;;;;;;3.78;1.45;;;7.70;75.90;;;;;;5074043;28;20038;-93
2023/03/28 10:53:09;;;;;;;6.00;1.08;;;7.70;74.70;;;;;;5074147;28;20115;-92
2023/03/28 10:55:57;;;;;;;7.47;2.55;;;7.80;74.70;;;;;;5072583;28;20047;-93
2023/03/28 10:58:38;;;;;;;7.70;1.27;;;7.90;74.20;;;;;;5072657;28;20077;-92
2023/03/28 11:01:19;;;;;;;6.45;1.52;;;7.90;74.40;;;;;;5072060;28;20044;-94
2023/03/28 11:03:59;;;;;;;6.35;1.48;;;8.00;74.20;;;;;;5073861;28;20043;-92
2023/03/28 11:06:40;;;;;;;7.03;1.08;;;7.90;74.20;;;;;;5071512;28;20097;-92
2023/03/28 11:09:25;;;;;;;4.57;1.23;;;8.00;75.00;;;;;;5073277;28;20043;-93
2023/03/28 11:12:21;;;;;;;4.97;1.10;;;7.90;74.10;;;;;;5073209;28;20043;-93
2023/03/28 11:14:57;;;;;;;5.18;1.02;;;7.90;74.50;;;;;;5072989;28;20048;-91
2023/03/28 11:17:37;;;;;;;2.80;0.80;;;7.90;73.10;;;;;;5093993;28;20047;-92
2023/03/28 11:20:31;;;;;;;4.05;1.08;;;7.80;73.40;;;;;;5069000;28;20090;-92
2023/03/28 11:22:59;;;;;;;6.80;1.45;;;7.90;73.40;;;;;;5083836;28;20035;-92
2023/03/28 11:25:48;;;;;;;5.18;1.20;;;8.00;74.40;;;;;;5088697;28;20036;-90
2023/03/28 11:28:14;;;;;;;5.15;1.27;;;8.00;73.40;;;;;;5107746;28;20052;-92
2023/03/28 11:30:49;;;;;;;5.43;1.45;;;8.10;73.80;;;;;;5110874;28;20048;-91
2023/03/28 11:33:56;;;;;;;3.97;0.90;;;8.10;73.60;;;;;;5077176;28;20054;-92
2023/03/28 11:36:30;;;;;;;4.72;1.15;;;8.10;74.00;;;;;;5077296;28;20036;-91
2023/03/28 11:39:04;;;;;;;5.85;1.30;;;8.10;74.00;;;;;;5070745;28;20174;-92
2023/03/28 11:41:35;;;;;;;7.00;1.48;;;8.10;73.70;;;;;;5100221;28;20169;-91
2023/03/28 11:44:23;;;;;;;6.40;1.10;;;8.10;73.10;;;;;;5093121;28;20040;-92
2023/03/28 11:46:58;;;;;;;8.13;1.70;;;8.20;74.20;;;;;;5090886;28;20081;-92
2023/03/28 11:49:35;;;;;;;5.07;1.30;;;8.20;73.90;;;;;;5096344;28;20516;-92
2023/03/28 11:52:25;;;;;;;3.50;1.00;;;8.30;73.70;;;;;;5076403;28;20130;-91
2023/03/28 11:55:21;;;;;;;5.88;1.20;;;8.40;71.40;;;;;;5075940;28;20043;-92
2023/03/28 11:57:51;;;;;;;2.42;0.90;;;8.40;71.70;;;;;;5092687;28;20044;-92
2023/03/28 12:00:21;;;;;;;5.68;1.60;;;8.40;72.00;;;;;;5075786;28;20032;-92
2023/03/28 12:02:53;;;;;;;10.60;1.77;;;8.50;72.50;;;;;;5075098;28;20040;-93
2023/03/28 12:05:23;;;;;;;10.48;1.75;;;8.60;72.50;;;;;;5076235;28;20500;-93
2023/03/28 12:08:10;;;;;;;5.60;1.40;;;8.60;72.40;;;;;;5075481;28;20055;-93
2023/03/28 12:10:36;;;;;;;5.00;1.45;;;8.60;72.10;;;;;;5076517;28;20028;-94
2023/03/28 12:13:30;;;;;;;6.97;1.60;;;8.80;73.10;;;;;;5091885;28;20036;-91
2023/03/28 12:16:07;;;;;;;4.78;1.50;;;9.00;72.50;;;;;;5077084;28;20051;-92
2023/03/28 12:18:40;;;;;;;8.68;1.65;;;9.20;72.70;;;;;;5075586;28;20054;-92
2023/03/28 12:21:09;;;;;;;8.35;1.90;;;9.30;72.10;;;;;;5073841;28;20127;-93
2023/03/28 12:23:36;;;;;;;9.68;2.08;;;9.30;71.50;;;;;;5075422;28;20826;-94
2023/03/28 12:26:27;;;;;;;7.03;1.60;;;9.30;71.30;;;;;;5074722;28;20028;-93
2023/03/28 12:28:57;;;;;;;9.77;1.92;;;9.30;69.40;;;;;;5072178;28;20362;-92
2023/03/28 12:31:52;;;;;;;7.20;1.65;;;9.40;70.60;;;;;;5074693;28;20043;-92
2023/03/28 12:34:38;;;;;;;4.50;1.30;;;9.50;69.40;;;;;;5074972;28;20059;-92
2023/03/28 12:37:16;;;;;;;8.30;2.55;;;9.70;69.90;;;;;;5091407;28;20059;-93
2023/03/28 12:39:49;;;;;;;7.10;1.83;;;9.80;68.20;;;;;;5074462;28;20072;-91
2023/03/28 12:42:18;;;;;;;6.85;1.60;;;9.80;68.30;;;;;;5074728;28;20131;-93
2023/03/28 12:44:53;;;;;;;6.18;1.52;;;9.80;68.20;;;;;;5075470;28;20042;-92
2023/03/28 12:47:45;;;;;;;8.15;2.13;;;9.90;68.00;;;;;;5074333;28;20126;-93
2023/03/28 12:50:22;;;;;;;6.50;1.80;;;9.90;67.50;;;;;;5075478;28;20130;-92
2023/03/28 12:52:48;;;;;;;5.72;2.25;;;9.90;67.30;;;;;;5073829;28;20122;-92
2023/03/28 12:55:23;;;;;;;7.25;2.22;;;10.10;68.00;;;;;;5082899;28;20091;-93
2023/03/28 12:57:50;;;;;;;7.32;1.65;;;10.10;67.90;;;;;;5079228;28;20074;-91
2023/03/28 13:00:56;;;;;;;6.75;1.80;;;10.20;68.20;;;;;;5064883;28;20119;-92
2023/03/28 13:03:34;;;;;;;6.82;1.77;;;10.30;66.80;;;;;;5039805;28;20143;-93
2023/03/28 13:06:36;;;;;;;5.13;1.60;;;10.20;67.50;;;;;;5066888;28;20428;-93
2023/03/28 13:09:34;;;;;;;7.50;1.92;;;10.10;65.60;;;;;;5096202;28;20035;-92
2023/03/28 13:12:21;;;;;;;5.30;1.63;;;10.00;66.70;;;;;;5068617;28;20032;-92
2023/03/28 13:15:24;;;;;;;9.25;1.90;;;9.90;65.60;;;;;;5081437;28;20086;-92
2023/03/28 13:18:09;;;;;;;;;;;9.80;64.60;;;;;;5063547;28;20142;-91
2023/03/28 13:20:44;;;;;;;4.75;1.45;;;9.70;64.70;;;;;;5074363;28;19916;-87
2023/03/28 13:23:13;;;;;;;4.43;1.60;;;9.80;66.50;;;;;;5070653;28;20523;-87